Weather at Whittles Farm Airstrip

Public forecast

Using degrees Celsius for public forecast. Weather courtesy of forecast.io.

Closest aviation weather report (METAR) to Whittles Farm Airstrip

Closest report is RAF Benson, 7.3 nm (13.5 km) NNW. Retrieved 2021/06/22 15:50 UTC (16 minutes ago):

EGUB 221550Z 35013KT 9999 FEW041 SCT050 16/08 Q1021 NOSIG RMK BLU BLU

Closest aviation forecast (TAF) to Whittles Farm Airstrip

Forecast is more than 12 hours old.

Closest forecast is RAF Benson, 7.3 nm (13.5 km) NNW. Retrieved 2020-10-01 23:00 UTC (9 months ago):

TAF TAF EGUB 010054Z 3023/0102 CNL